Lehký déšť, možnost bouřek
Lehký déšť, možnost bouřek
Lehký déšť, možnost bouřek
Lehký déšť, možnost bouřek
Lehký déšť, možnost bouřek
Lehký déšť, možnost bouřek
Lehký déšť, možnost bouřek
(°C)
18°
18°
18°
18°
17°
17°
17°
17°
16°
16°
16°
16°
15°
15°
(°C)
17°
16°
16°
15°
15°
15°
13°
JJZ
JJZ
ZJZ
ZJZ
ZJZ
ZJZ
ZJZ
(km/h)
12-35
11-33
11-32
10-32
10-34
9-32
9-30
(mm)
0.6
0.8
1.1
0.6
0.2
0.3
0.1
(%)
92
92
85
72
72
57
57

Sluneční výška

/ 61°
sun-icon
UV 2
06:54
20:18
Dorůstající měsíc (109°)
14:03
04:13

METAR pro Ioánnina (LGIO)

Čas Podmínky Teplota/
Rosný bod
Vítr Viditelnost Počasí Oblaky Tlak Změna Nezpracované
MVFR 19°C / 13°C 140º variable 110º to 190º 7kt 9700m Light Rain 1.00mm precipitation Broken Clouds 2500ft 1002 - LGIO 170950Z 14007KT 110V190 9999 -RA BKN025 19/13 Q1002
MVFR 20°C / 13°C 140º variable 120º to 200º 8kt 9700m - Broken Clouds 2500ft 1002 - LGIO 170920Z 14008KT 120V200 9999 BKN025 20/13 Q1002
MVFR 18°C / 13°C 130º variable 110º to 180º 8kt 9700m - Broken Clouds 2500ft 1003 - LGIO 170850Z 13008KT 110V180 9999 BKN025 18/13 Q1003
MVFR 17°C / 13°C 150º 8kt 9700m - Broken Clouds 2500ft 1003 - LGIO 170820Z 15008KT 9999 BKN025 17/13 Q1003
MVFR 18°C / 13°C 140º 7kt 9700m - Broken Clouds 2500ft 1003 - LGIO 170750Z 14007KT 9999 BKN025 18/13 Q1003
MVFR 17°C / 14°C 120º 7kt 9700m - Broken Clouds 2000ft 1003 - LGIO 170720Z 12007KT 9999 BKN020 17/14 Q1003
MVFR 16°C / 14°C 150º variable 090º to 160º 6kt 9700m - Broken Clouds 2000ft 1003 - LGIO 170650Z 15006KT 090V160 9999 BKN020 16/14 Q1003
MVFR 15°C / 14°C 120º 8kt 9700m Light Rain 1.00mm precipitation Broken Clouds 2000ft 1003 - LGIO 170620Z 12008KT 9999 -RA BKN020 15/14 Q1003
MVFR 15°C / 13°C 130º 6kt 9700m Light Rain 1.00mm precipitation Overcast 2000ft 1004 - LGIO 170550Z 13006KT 9999 -RA OVC020 15/13 Q1004
16°C / 13°C 130º variable 110º to 180º 7kt - 1003 - LGIO 170520Z AUTO 13007KT 110V180 //// // ////// 16/13 Q1003 RE//
15°C / 13°C 150º 8kt - 1003 - LGIO 170450Z AUTO 15008KT //// // ////// 15/13 Q1003 RE//
15°C / 13°C 110º variable 090º to 150º 8kt - 1004 - LGIO 170420Z AUTO 11008KT 090V150 //// // ////// 15/13 Q1004 RE//
15°C / 13°C 140º variable 110º to 180º 7kt - 1004 - LGIO 170350Z AUTO 14007KT 110V180 //// // ////// 15/13 Q1004 RE//
15°C / 13°C 130º 7kt - 1004 - LGIO 170320Z AUTO 13007KT //// // ////// 15/13 Q1004 RE//
15°C / 12°C 120º 7kt - 1004 - LGIO 170250Z AUTO 12007KT //// // ////// 15/12 Q1004 RE//
15°C / 13°C 140º variable 110º to 190º 8kt - 1004 - LGIO 170220Z AUTO 14008KT 110V190 //// // ////// 15/13 Q1004 RE//
15°C / 13°C 140º variable 110º to 170º 9kt - 1005 - LGIO 170150Z AUTO 14009KT 110V170 //// // ////// 15/13 Q1005 RE//
15°C / 13°C 150º variable 110º to 180º 8kt - 1005 - LGIO 170120Z AUTO 15008KT 110V180 //// // ////// 15/13 Q1005 RE//
15°C / 13°C 150º variable 110º to 170º 11kt - 1005 - LGIO 170050Z AUTO 15011KT 110V170 //// // ////// 15/13 Q1005 RE//
14°C / 13°C 140º 6kt - 1005 - LGIO 170020Z AUTO 14006KT //// // ////// 14/13 Q1005 RE//
15°C / 12°C 150º variable 100º to 160º 7kt - 1006 - LGIO 162350Z AUTO 15007KT 100V160 //// // ////// 15/12 Q1006 RE//
15°C / 12°C 140º variable 100º to 160º 7kt - 1006 - LGIO 162320Z AUTO 14007KT 100V160 //// // ////// 15/12 Q1006 RE//
15°C / 12°C 130º variable 090º to 160º 6kt - 1007 - LGIO 162250Z AUTO 13006KT 090V160 //// // ////// 15/12 Q1007 RE//
13°C / 12°C 2kt - 1008 - LGIO 162220Z AUTO VRB02KT //// // ////// 13/12 Q1008 RE//

MVFR

19°C / 13°C

[Víc]
Vítr 140º variable 110º to 190º 7kt
Viditelnost 9700m
Počasí Light Rain 1.00mm precipitation
Oblaky Broken Clouds 2500ft
Tlak 1002
Změna -
Nezpracované LGIO 170950Z 14007KT 110V190 9999 -RA BKN025 19/13 Q1002

MVFR

20°C / 13°C

[Víc]
Vítr 140º variable 120º to 200º 8kt
Viditelnost 9700m
Počasí -
Oblaky Broken Clouds 2500ft
Tlak 1002
Změna -
Nezpracované LGIO 170920Z 14008KT 120V200 9999 BKN025 20/13 Q1002

MVFR

18°C / 13°C

[Víc]
Vítr 130º variable 110º to 180º 8kt
Viditelnost 9700m
Počasí -
Oblaky Broken Clouds 2500ft
Tlak 1003
Změna -
Nezpracované LGIO 170850Z 13008KT 110V180 9999 BKN025 18/13 Q1003

MVFR

17°C / 13°C

[Víc]
Vítr 150º 8kt
Viditelnost 9700m
Počasí -
Oblaky Broken Clouds 2500ft
Tlak 1003
Změna -
Nezpracované LGIO 170820Z 15008KT 9999 BKN025 17/13 Q1003

MVFR

18°C / 13°C

[Víc]
Vítr 140º 7kt
Viditelnost 9700m
Počasí -
Oblaky Broken Clouds 2500ft
Tlak 1003
Změna -
Nezpracované LGIO 170750Z 14007KT 9999 BKN025 18/13 Q1003

MVFR

17°C / 14°C

[Víc]
Vítr 120º 7kt
Viditelnost 9700m
Počasí -
Oblaky Broken Clouds 2000ft
Tlak 1003
Změna -
Nezpracované LGIO 170720Z 12007KT 9999 BKN020 17/14 Q1003

MVFR

16°C / 14°C

[Víc]
Vítr 150º variable 090º to 160º 6kt
Viditelnost 9700m
Počasí -
Oblaky Broken Clouds 2000ft
Tlak 1003
Změna -
Nezpracované LGIO 170650Z 15006KT 090V160 9999 BKN020 16/14 Q1003

MVFR

15°C / 14°C

[Víc]
Vítr 120º 8kt
Viditelnost 9700m
Počasí Light Rain 1.00mm precipitation
Oblaky Broken Clouds 2000ft
Tlak 1003
Změna -
Nezpracované LGIO 170620Z 12008KT 9999 -RA BKN020 15/14 Q1003

MVFR

15°C / 13°C

[Víc]
Vítr 130º 6kt
Viditelnost 9700m
Počasí Light Rain 1.00mm precipitation
Oblaky Overcast 2000ft
Tlak 1004
Změna -
Nezpracované LGIO 170550Z 13006KT 9999 -RA OVC020 15/13 Q1004

16°C / 13°C

[Víc]
Vítr 130º variable 110º to 180º 7kt
Viditelnost
Počasí -
Oblaky
Tlak 1003
Změna -
Nezpracované LGIO 170520Z AUTO 13007KT 110V180 //// // ////// 16/13 Q1003 RE//

15°C / 13°C

[Víc]
Vítr 150º 8kt
Viditelnost
Počasí -
Oblaky
Tlak 1003
Změna -
Nezpracované LGIO 170450Z AUTO 15008KT //// // ////// 15/13 Q1003 RE//

15°C / 13°C

[Víc]
Vítr 110º variable 090º to 150º 8kt
Viditelnost
Počasí -
Oblaky
Tlak 1004
Změna -
Nezpracované LGIO 170420Z AUTO 11008KT 090V150 //// // ////// 15/13 Q1004 RE//

15°C / 13°C

[Víc]
Vítr 140º variable 110º to 180º 7kt
Viditelnost
Počasí -
Oblaky
Tlak 1004
Změna -
Nezpracované LGIO 170350Z AUTO 14007KT 110V180 //// // ////// 15/13 Q1004 RE//

15°C / 13°C

[Víc]
Vítr 130º 7kt
Viditelnost
Počasí -
Oblaky
Tlak 1004
Změna -
Nezpracované LGIO 170320Z AUTO 13007KT //// // ////// 15/13 Q1004 RE//

15°C / 12°C

[Víc]
Vítr 120º 7kt
Viditelnost
Počasí -
Oblaky
Tlak 1004
Změna -
Nezpracované LGIO 170250Z AUTO 12007KT //// // ////// 15/12 Q1004 RE//

15°C / 13°C

[Víc]
Vítr 140º variable 110º to 190º 8kt
Viditelnost
Počasí -
Oblaky
Tlak 1004
Změna -
Nezpracované LGIO 170220Z AUTO 14008KT 110V190 //// // ////// 15/13 Q1004 RE//

15°C / 13°C

[Víc]
Vítr 140º variable 110º to 170º 9kt
Viditelnost
Počasí -
Oblaky
Tlak 1005
Změna -
Nezpracované LGIO 170150Z AUTO 14009KT 110V170 //// // ////// 15/13 Q1005 RE//

15°C / 13°C

[Víc]
Vítr 150º variable 110º to 180º 8kt
Viditelnost
Počasí -
Oblaky
Tlak 1005
Změna -
Nezpracované LGIO 170120Z AUTO 15008KT 110V180 //// // ////// 15/13 Q1005 RE//

15°C / 13°C

[Víc]
Vítr 150º variable 110º to 170º 11kt
Viditelnost
Počasí -
Oblaky
Tlak 1005
Změna -
Nezpracované LGIO 170050Z AUTO 15011KT 110V170 //// // ////// 15/13 Q1005 RE//

14°C / 13°C

[Víc]
Vítr 140º 6kt
Viditelnost
Počasí -
Oblaky
Tlak 1005
Změna -
Nezpracované LGIO 170020Z AUTO 14006KT //// // ////// 14/13 Q1005 RE//

15°C / 12°C

[Víc]
Vítr 150º variable 100º to 160º 7kt
Viditelnost
Počasí -
Oblaky
Tlak 1006
Změna -
Nezpracované LGIO 162350Z AUTO 15007KT 100V160 //// // ////// 15/12 Q1006 RE//

15°C / 12°C

[Víc]
Vítr 140º variable 100º to 160º 7kt
Viditelnost
Počasí -
Oblaky
Tlak 1006
Změna -
Nezpracované LGIO 162320Z AUTO 14007KT 100V160 //// // ////// 15/12 Q1006 RE//

15°C / 12°C

[Víc]
Vítr 130º variable 090º to 160º 6kt
Viditelnost
Počasí -
Oblaky
Tlak 1007
Změna -
Nezpracované LGIO 162250Z AUTO 13006KT 090V160 //// // ////// 15/12 Q1007 RE//

13°C / 12°C

[Víc]
Vítr 2kt
Viditelnost
Počasí -
Oblaky
Tlak 1008
Změna -
Nezpracované LGIO 162220Z AUTO VRB02KT //// // ////// 13/12 Q1008 RE//

TAF pro Ioánnina (LGIO)

From till


From till Wind 3kt. Visibility 9700m. Few Clouds 1000ft. Broken Clouds 2500ft. Broken Clouds 8000ft.
Temporarly from till Visibility 5000m. Rain . Few Clouds 800ft. Broken Clouds 2500ft. Overcast 7000ft.
With 40% probability, Temporarly from till Visibility 3000m. Thunderstorm Rain . Scattered Clouds 800ft. Few Clouds 1600ft. Broken Clouds 2000ft.

Nezpracované: TAF LGIO 170800Z 1709/1718 VRB03KT 9999 FEW010 BKN025 BKN080 TEMPO 1709/1718 5000 RA FEW008 BKN025 OVC070 PROB40 TEMPO 1709/1718 3000 TSRA SCT008 FEW016CB BKN020 OVC070

Radar a krátkodobá předpověď srážek pro Ioánnina

Mrholení
Slabé
Střední
Silné
Velmi silné
Kroupy

Značka lokality je umístněna na Ioánnina. Tato animace zobrazuje srážkový radar pro vybraný časový rozsah a také 2h předpověď. Oranžové křížky označují blesky. Údaje poskytl nowcast.de (k dispozici v USA, Evropě a Austrálii). Mrholení nebo slabé sněžení může být pro radar neviditelné. Intenzita srážek je barevně označena od tyrkysové po červenou.

Aktuální snímky ze satelitu a srážky pro Ioánnina, Řecko

Značka polohy je umístěna na Ioánnina. [Víc]

Satelitní snímek v reálném čase kombinuje viditelné světlo během dne s infračerveným zářením během noci. V noci není obraz tmavý, protože infračervené záření dokáže detekovat teplotní rozdíly. Nízká oblačnost a mlha se bohužel těžko odlišují od pozemních teplot, a proto mohou být během noci téměř neviditelné. Satelitní snímky z Meteosatu pro Evropu jsou aktualizovány v reálném čase každých 5 minut. Snímky z GOES-16/GOES-17 (Severní a Jižní Amerika) a Himawari (Asie) jsou aktualizovány) každých 10 minut.

Srážky se odhadují z radarů a družic. Odhady srážek ze satelitů jsou v noci méně přesné než ve dne.

© 2024 meteoblue, NOAA Satellites GOES-16 and EUMETSAT. Údaje o blescích poskytuje nowcast.

Zpět nahoru
×
Dobrý den,
zdá se, že používáte blokovač reklam.

Reklama je nezbytná pro udržování našich bezplatných webových stránek s jedinečnými detaily a přesností.

Prosím, zapište www.meteoblue.com do svého blokovače reklam nebo zvažte nákup některého z našich produktů:

Máte již předplatné?
Pak se prosím přihlaste.